Time;durP1;ratioP1;P1;durP2;ratioP2;P2;SDS_P1;SDS_P2;PMS_P1;PMS_P2;Temp;Humidity;BMP_temperature;BMP_pressure;BME280_temperature;BME280_humidity;BME280_pressure;Samples;Min_cycle;Max_cycle;Signal;HPM_P1;HPM_P2
2021/06/10 00:01:42;;;;;;;8.00;7.20;;;16.80;99.90;;;;;;5073418;28;20291;-82
2021/06/10 00:04:07;;;;;;;9.13;8.23;;;16.80;99.90;;;;;;5073348;28;20166;-83
2021/06/10 00:06:33;;;;;;;8.63;7.93;;;16.80;99.90;;;;;;5073080;28;20234;-83
2021/06/10 00:08:58;;;;;;;8.20;7.40;;;16.70;99.90;;;;;;5073367;28;20203;-83
2021/06/10 00:11:24;;;;;;;8.20;7.50;;;16.80;99.90;;;;;;5073107;28;20217;-83
2021/06/10 00:13:50;;;;;;;8.73;7.80;;;16.70;99.90;;;;;;5073592;28;20208;-85
2021/06/10 00:16:16;;;;;;;9.00;7.87;;;16.70;99.90;;;;;;5073408;28;20249;-83
2021/06/10 00:18:43;;;;;;;8.73;8.00;;;16.70;99.90;;;;;;5072927;28;20229;-83
2021/06/10 00:21:08;;;;;;;10.00;9.00;;;16.70;99.90;;;;;;5073253;28;20514;-82
2021/06/10 00:23:35;;;;;;;11.87;9.33;;;16.50;99.90;;;;;;5072826;28;20409;-82
2021/06/10 00:26:01;;;;;;;8.57;7.83;;;16.40;99.90;;;;;;5069220;28;20166;-82
2021/06/10 00:28:26;;;;;;;8.77;7.97;;;16.50;99.90;;;;;;5054040;28;20472;-82
2021/06/10 00:30:52;;;;;;;9.63;8.70;;;16.50;99.90;;;;;;5072660;28;20165;-82
2021/06/10 00:33:17;;;;;;;10.07;8.40;;;16.50;99.90;;;;;;5072476;28;20532;-82
2021/06/10 00:35:43;;;;;;;10.90;9.90;;;16.50;99.90;;;;;;5073075;28;20175;-81
2021/06/10 00:38:09;;;;;;;9.50;8.60;;;16.50;99.90;;;;;;5073042;28;20170;-82
2021/06/10 00:40:35;;;;;;;10.00;9.07;;;16.50;99.90;;;;;;5073062;28;20170;-81
2021/06/10 00:43:01;;;;;;;11.27;9.40;;;16.40;99.90;;;;;;5070033;28;20930;-82
2021/06/10 00:45:28;;;;;;;10.43;9.43;;;16.40;99.90;;;;;;5071462;28;20162;-82
2021/06/10 00:47:54;;;;;;;10.80;9.80;;;16.40;99.90;;;;;;5072389;28;20547;-82
2021/06/10 00:50:24;;;;;;;10.83;9.70;;;16.30;99.90;;;;;;5072712;28;20534;-82
2021/06/10 00:52:50;;;;;;;11.40;10.23;;;16.30;99.90;;;;;;5072758;28;20508;-82
2021/06/10 00:55:16;;;;;;;11.23;10.10;;;16.20;99.90;;;;;;5072777;28;20506;-82
2021/06/10 00:57:42;;;;;;;10.87;9.87;;;16.20;99.90;;;;;;5072643;28;20628;-82
2021/06/10 01:00:13;;;;;;;10.50;9.50;;;16.10;99.90;;;;;;5072368;28;20169;-82
2021/06/10 01:02:39;;;;;;;10.13;9.07;;;16.10;99.90;;;;;;5072130;28;20407;-82
2021/06/10 01:05:07;;;;;;;10.07;9.07;;;16.00;99.90;;;;;;5072099;28;20403;-82
2021/06/10 01:07:43;;;;;;;10.00;9.00;;;16.00;99.90;;;;;;5054460;28;20479;-82
2021/06/10 01:10:12;;;;;;;11.10;10.00;;;15.90;99.90;;;;;;5070606;28;20454;-82
2021/06/10 01:13:17;;;;;;;10.37;9.40;;;15.80;99.90;;;;;;5072022;28;20411;-82
2021/06/10 01:15:45;;;;;;;13.60;10.30;;;15.70;99.90;;;;;;5027358;28;20427;-82
2021/06/10 01:18:15;;;;;;;10.80;9.90;;;15.80;99.90;;;;;;5071823;28;20443;-82
2021/06/10 01:20:43;;;;;;;10.53;9.53;;;15.70;99.90;;;;;;5069080;28;20415;-82
2021/06/10 01:23:21;;;;;;;11.13;10.00;;;15.70;99.90;;;;;;5053839;28;20423;-81
2021/06/10 01:26:06;;;;;;;10.73;9.80;;;15.60;99.90;;;;;;5070232;28;20435;-82
2021/06/10 01:28:34;;;;;;;10.60;9.70;;;15.50;99.90;;;;;;5070519;28;21064;-82
2021/06/10 01:31:05;;;;;;;11.43;10.33;;;15.40;99.90;;;;;;5071964;28;20421;-83
2021/06/10 01:33:40;;;;;;;11.20;10.20;;;15.30;99.90;;;;;;5071521;28;20419;-83
2021/06/10 01:36:21;;;;;;;10.80;9.80;;;15.30;99.90;;;;;;5069786;28;20402;-83
2021/06/10 01:38:49;;;;;;;11.77;10.77;;;15.30;99.90;;;;;;5069502;28;20504;-83
2021/06/10 01:41:18;;;;;;;11.30;10.10;;;15.30;99.90;;;;;;5053744;28;20428;-84
2021/06/10 01:43:45;;;;;;;12.00;10.90;;;15.30;99.90;;;;;;5069330;28;20410;-82
2021/06/10 01:46:11;;;;;;;11.80;10.80;;;15.30;99.90;;;;;;5071680;28;20407;-82
2021/06/10 01:48:40;;;;;;;12.37;11.23;;;15.20;99.90;;;;;;5071078;28;20945;-82
2021/06/10 01:51:07;;;;;;;11.67;10.57;;;15.20;99.90;;;;;;5071255;28;20415;-83
2021/06/10 01:53:36;;;;;;;13.40;12.00;;;15.30;99.90;;;;;;5071691;28;20415;-83
2021/06/10 01:56:02;;;;;;;13.10;11.80;;;15.30;99.90;;;;;;5054466;28;20923;-84
2021/06/10 01:58:29;;;;;;;12.40;11.10;;;15.20;99.90;;;;;;5054535;28;20503;-83
2021/06/10 02:00:55;;;;;;;12.03;10.93;;;15.20;99.90;;;;;;5072040;28;20415;-82
2021/06/10 02:03:22;;;;;;;12.60;11.13;;;15.20;99.90;;;;;;5071262;28;20830;-83
2021/06/10 02:05:48;;;;;;;12.87;11.67;;;15.10;99.90;;;;;;5072034;28;20901;-83
2021/06/10 02:08:16;;;;;;;14.33;13.00;;;15.10;99.90;;;;;;5071964;28;20871;-83
2021/06/10 02:10:44;;;;;;;12.60;11.50;;;14.90;99.90;;;;;;5072036;28;20465;-83
2021/06/10 02:13:10;;;;;;;12.50;11.20;;;14.90;99.90;;;;;;5071550;28;20433;-82
2021/06/10 02:15:36;;;;;;;14.30;13.00;;;14.90;99.90;;;;;;5071982;28;20501;-82
2021/06/10 02:18:02;;;;;;;13.60;12.40;;;14.90;99.90;;;;;;5071335;28;20513;-83
2021/06/10 02:20:28;;;;;;;13.17;11.87;;;14.80;99.90;;;;;;5053980;28;20205;-83
2021/06/10 02:22:54;;;;;;;14.40;13.00;;;14.80;99.90;;;;;;5071447;28;20908;-83
2021/06/10 02:25:20;;;;;;;13.80;12.70;;;14.70;99.90;;;;;;5071856;28;20535;-83
2021/06/10 02:27:45;;;;;;;15.27;13.97;;;14.70;99.90;;;;;;5071562;28;20418;-83
2021/06/10 02:30:13;;;;;;;12.60;11.47;;;14.50;99.90;;;;;;5071687;28;20785;-83
2021/06/10 02:32:39;;;;;;;14.73;13.33;;;14.50;99.90;;;;;;5071352;28;20217;-83
2021/06/10 02:35:08;;;;;;;16.13;14.57;;;14.40;99.90;;;;;;5053881;28;20476;-83
2021/06/10 02:37:39;;;;;;;14.70;13.20;;;14.50;99.90;;;;;;5071744;28;20191;-86
2021/06/10 02:40:10;;;;;;;13.93;12.70;;;14.50;99.90;;;;;;5070877;28;20418;-85
2021/06/10 02:42:38;;;;;;;14.83;13.50;;;14.50;99.90;;;;;;5071743;28;20867;-85
2021/06/10 02:45:06;;;;;;;12.03;11.03;;;14.30;99.90;;;;;;5071640;28;20486;-85
2021/06/10 02:47:33;;;;;;;14.60;13.20;;;14.30;99.90;;;;;;5071238;28;20749;-84
2021/06/10 02:49:59;;;;;;;16.03;14.33;;;14.30;99.90;;;;;;5071530;28;20472;-83
2021/06/10 02:52:26;;;;;;;14.73;13.33;;;14.30;99.90;;;;;;5071702;28;20421;-84
2021/06/10 02:54:52;;;;;;;14.33;12.87;;;14.30;99.90;;;;;;5053406;28;20809;-84
2021/06/10 02:57:20;;;;;;;15.03;13.63;;;14.20;99.90;;;;;;5071474;28;20410;-83
2021/06/10 02:59:47;;;;;;;16.80;15.10;;;14.20;99.90;;;;;;5071495;28;20448;-84
2021/06/10 03:02:14;;;;;;;16.00;13.60;;;14.30;99.90;;;;;;5053288;28;20428;-84
2021/06/10 03:04:42;;;;;;;14.20;12.77;;;14.30;99.90;;;;;;5071001;28;20421;-85
2021/06/10 03:07:12;;;;;;;13.63;12.40;;;14.30;99.90;;;;;;5071511;28;20459;-84
2021/06/10 03:09:39;;;;;;;14.10;12.70;;;14.30;99.90;;;;;;5055418;28;20509;-84
2021/06/10 03:12:06;;;;;;;14.70;13.20;;;14.20;99.90;;;;;;5087113;28;20972;-84
2021/06/10 03:14:32;;;;;;;15.30;12.40;;;14.20;99.90;;;;;;5095553;28;20915;-84
2021/06/10 03:16:58;;;;;;;14.57;13.17;;;14.20;99.90;;;;;;5095660;28;20404;-83
2021/06/10 03:19:25;;;;;;;14.37;13.17;;;14.20;99.90;;;;;;5093963;28;20429;-83
2021/06/10 03:21:50;;;;;;;14.13;12.83;;;14.20;99.90;;;;;;5095408;28;20505;-83
2021/06/10 03:24:18;;;;;;;14.10;12.70;;;14.10;99.90;;;;;;5094859;28;20500;-83
2021/06/10 03:26:45;;;;;;;16.17;14.57;;;14.10;99.90;;;;;;5094285;28;20194;-83
2021/06/10 03:29:10;;;;;;;15.43;13.40;;;14.10;99.90;;;;;;5095720;28;20499;-86
2021/06/10 03:31:36;;;;;;;15.40;13.97;;;14.10;99.90;;;;;;5095263;28;20446;-84
2021/06/10 03:34:03;;;;;;;14.30;12.90;;;14.10;99.90;;;;;;5095905;28;20173;-85
2021/06/10 03:36:30;;;;;;;14.83;13.43;;;14.20;99.90;;;;;;5095032;28;20408;-85
2021/06/10 03:38:57;;;;;;;15.57;14.10;;;14.20;99.90;;;;;;5095634;28;20913;-85
2021/06/10 03:41:24;;;;;;;13.80;12.30;;;14.30;99.90;;;;;;5096262;28;20786;-84
2021/06/10 03:43:50;;;;;;;13.90;12.10;;;14.20;99.90;;;;;;5096167;28;20767;-85
2021/06/10 03:46:16;;;;;;;13.87;12.57;;;14.40;99.90;;;;;;5096128;28;20878;-85
2021/06/10 03:48:42;;;;;;;15.43;14.10;;;14.40;99.90;;;;;;5095648;28;20547;-84
2021/06/10 03:51:12;;;;;;;14.57;13.17;;;14.40;99.90;;;;;;5096094;28;20184;-85
2021/06/10 03:53:38;;;;;;;15.10;13.60;;;14.40;99.90;;;;;;5095650;28;20179;-85
2021/06/10 03:56:04;;;;;;;13.93;12.63;;;14.60;99.90;;;;;;5094494;28;20465;-85
2021/06/10 03:58:30;;;;;;;13.73;11.90;;;14.60;99.90;;;;;;5095300;28;20185;-85
2021/06/10 04:00:56;;;;;;;14.10;12.90;;;14.60;99.90;;;;;;5093947;28;20835;-85
2021/06/10 04:03:21;;;;;;;13.57;12.37;;;14.70;99.90;;;;;;5094736;28;20183;-84
2021/06/10 04:05:47;;;;;;;14.13;12.63;;;14.80;99.90;;;;;;5094963;28;20604;-85
2021/06/10 04:08:12;;;;;;;13.50;12.17;;;14.90;99.90;;;;;;5095108;28;20211;-84
2021/06/10 04:10:38;;;;;;;12.50;11.27;;;14.90;99.90;;;;;;5090140;28;20219;-85
2021/06/10 04:13:03;;;;;;;14.23;12.80;;;15.00;99.90;;;;;;5074149;28;20179;-85
2021/06/10 04:15:29;;;;;;;13.60;12.20;;;15.10;99.90;;;;;;5056842;28;20619;-85
2021/06/10 04:17:55;;;;;;;13.37;12.17;;;15.10;99.90;;;;;;5074258;28;20187;-85
2021/06/10 04:20:20;;;;;;;14.57;13.07;;;15.20;99.90;;;;;;5073919;28;20252;-85
2021/06/10 04:22:46;;;;;;;13.77;12.37;;;15.30;99.90;;;;;;5074491;28;20222;-86
2021/06/10 04:25:12;;;;;;;14.20;12.90;;;15.30;99.90;;;;;;5074698;28;20183;-85
2021/06/10 04:27:38;;;;;;;14.53;13.13;;;15.40;99.90;;;;;;5074495;28;20173;-86
2021/06/10 04:30:14;;;;;;;13.53;12.23;;;15.40;99.90;;;;;;5055192;28;20482;-85
2021/06/10 04:32:41;;;;;;;15.33;13.80;;;15.50;99.90;;;;;;5074182;28;20225;-85
2021/06/10 04:35:08;;;;;;;14.00;12.40;;;15.70;99.90;;;;;;5074222;28;20632;-85
2021/06/10 04:37:34;;;;;;;14.33;13.10;;;15.70;99.90;;;;;;5074273;28;20399;-85
2021/06/10 04:39:59;;;;;;;14.57;12.93;;;15.70;99.90;;;;;;5074261;28;20420;-85
2021/06/10 04:42:25;;;;;;;12.50;11.30;;;15.80;99.90;;;;;;5074102;28;20165;-85
2021/06/10 04:44:52;;;;;;;12.27;11.07;;;15.80;99.90;;;;;;5073634;28;20411;-84
2021/06/10 04:47:17;;;;;;;13.63;12.33;;;15.90;99.90;;;;;;5073536;28;20172;-85
2021/06/10 04:49:44;;;;;;;11.40;10.30;;;16.00;99.90;;;;;;5073884;28;20854;-85
2021/06/10 04:52:10;;;;;;;11.13;10.23;;;16.10;99.90;;;;;;5073997;28;20207;-85
2021/06/10 04:54:36;;;;;;;11.53;10.33;;;16.20;99.90;;;;;;5073720;28;20448;-85
2021/06/10 04:57:03;;;;;;;11.47;10.37;;;16.30;99.90;;;;;;5073784;28;20411;-85
2021/06/10 04:59:29;;;;;;;15.97;10.27;;;16.40;99.90;;;;;;5055863;28;20227;-85
2021/06/10 05:01:56;;;;;;;10.50;9.60;;;16.40;99.90;;;;;;5072788;28;20408;-85
2021/06/10 05:04:22;;;;;;;10.17;9.37;;;16.50;99.90;;;;;;5073772;28;20417;-84
2021/06/10 05:06:50;;;;;;;11.10;9.90;;;16.50;99.90;;;;;;5073451;28;20466;-84
2021/06/10 05:09:16;;;;;;;12.30;10.67;;;16.80;99.90;;;;;;5073542;28;20514;-84
2021/06/10 05:11:41;;;;;;;11.70;10.50;;;16.80;99.90;;;;;;5079039;28;20456;-84
2021/06/10 05:14:07;;;;;;;10.80;9.80;;;16.80;99.90;;;;;;5093149;28;20269;-84
2021/06/10 05:16:32;;;;;;;10.83;9.47;;;16.90;99.90;;;;;;5091739;28;20201;-85
2021/06/10 05:18:58;;;;;;;10.17;9.30;;;17.00;99.90;;;;;;5092878;28;20261;-85
2021/06/10 05:21:24;;;;;;;8.03;7.33;;;17.10;99.90;;;;;;5093359;28;20175;-84
2021/06/10 05:23:49;;;;;;;8.67;7.60;;;17.30;99.90;;;;;;5092484;28;20630;-85
2021/06/10 05:26:15;;;;;;;9.80;8.90;;;17.50;99.90;;;;;;5093217;28;20491;-85
2021/06/10 05:28:41;;;;;;;8.67;7.80;;;17.40;99.90;;;;;;5092766;28;20203;-84
2021/06/10 05:31:07;;;;;;;9.53;8.60;;;17.70;99.90;;;;;;5092993;28;20725;-84
2021/06/10 05:33:37;;;;;;;9.00;8.27;;;17.80;99.90;;;;;;5091053;28;20254;-85
2021/06/10 05:36:03;;;;;;;9.00;8.10;;;17.90;99.90;;;;;;5084605;28;20437;-85
2021/06/10 05:38:29;;;;;;;8.53;7.73;;;18.20;99.90;;;;;;5090316;28;20416;-84
2021/06/10 05:40:55;;;;;;;9.90;8.93;;;18.40;99.90;;;;;;5092251;28;20412;-84
2021/06/10 05:43:23;;;;;;;8.50;7.60;;;18.60;99.90;;;;;;5092820;28;20236;-85
2021/06/10 05:45:49;;;;;;;8.37;6.70;;;18.70;99.90;;;;;;5092788;28;20270;-85
2021/06/10 05:48:17;;;;;;;7.73;7.00;;;18.90;99.90;;;;;;5092213;28;20978;-84
2021/06/10 05:50:43;;;;;;;9.40;7.90;;;19.00;99.90;;;;;;5092737;28;20426;-85
2021/06/10 05:53:08;;;;;;;7.77;7.10;;;19.20;32.20;;;;;;5092802;28;20457;-85
2021/06/10 05:55:34;;;;;;;9.87;7.10;;;19.40;33.30;;;;;;5091876;28;20169;-84
2021/06/10 05:57:59;;;;;;;8.10;7.40;;;19.40;10.60;;;;;;5092619;28;20219;-85
2021/06/10 06:00:25;;;;;;;7.33;6.73;;;19.50;21.20;;;;;;5092579;28;20176;-85
2021/06/10 06:02:51;;;;;;;8.33;7.33;;;19.80;17.80;;;;;;5092122;28;20170;-85
2021/06/10 06:05:17;;;;;;;9.10;6.97;;;;;;;;;;5092639;28;20559;-85
2021/06/10 06:07:42;;;;;;;8.43;7.50;;;20.20;1.00;;;;;;5092503;28;20535;-85
2021/06/10 06:10:08;;;;;;;8.40;7.53;;;20.40;1.00;;;;;;5092520;28;20484;-84
2021/06/10 06:12:35;;;;;;;6.60;6.03;;;20.50;3.80;;;;;;5070409;28;20189;-85
2021/06/10 06:15:01;;;;;;;6.20;5.43;;;20.60;5.30;;;;;;5054729;28;20502;-86
2021/06/10 06:17:27;;;;;;;7.00;6.27;;;20.80;29.90;;;;;;5072616;28;20417;-85
2021/06/10 06:19:56;;;;;;;6.23;5.30;;;21.00;1.00;;;;;;5073023;28;20167;-86
2021/06/10 06:22:22;;;;;;;6.27;5.20;;;21.30;1.00;;;;;;5072905;28;20197;-86
2021/06/10 06:24:48;;;;;;;6.83;5.53;;;21.50;1.00;;;;;;5054200;28;20433;-85
2021/06/10 06:27:14;;;;;;;4.93;4.43;;;21.50;1.00;;;;;;5071943;28;20194;-85
2021/06/10 06:29:40;;;;;;;5.93;3.70;;;21.70;1.00;;;;;;5072168;28;20245;-86
2021/06/10 06:32:06;;;;;;;6.53;4.07;;;21.90;1.00;;;;;;5071930;28;20181;-84
2021/06/10 06:34:32;;;;;;;5.70;4.43;;;22.20;1.00;;;;;;5072360;28;20409;-85
2021/06/10 06:36:57;;;;;;;5.70;4.37;;;22.40;1.00;;;;;;5072316;28;20774;-86
2021/06/10 06:39:23;;;;;;;4.70;4.30;;;22.60;1.00;;;;;;5072248;28;20202;-85
2021/06/10 06:41:49;;;;;;;4.80;4.33;;;22.80;99.90;;;;;;5072400;28;20174;-85
2021/06/10 06:44:14;;;;;;;5.37;4.60;;;22.90;1.00;;;;;;5052959;28;20166;-85
2021/06/10 06:46:40;;;;;;;4.83;4.43;;;23.00;99.90;;;;;;5067984;28;20178;-84
2021/06/10 06:49:05;;;;;;;5.80;5.20;;;23.00;1.00;;;;;;5071486;28;20212;-85
2021/06/10 06:51:32;;;;;;;5.43;4.87;;;22.90;99.90;;;;;;5072071;28;20212;-85
2021/06/10 06:53:57;;;;;;;5.80;5.30;;;22.90;99.90;;;;;;5072040;28;20179;-85
2021/06/10 06:56:25;;;;;;;6.80;5.67;;;23.00;1.00;;;;;;5071931;28;20401;-85
2021/06/10 06:58:52;;;;;;;7.23;5.20;;;23.20;1.00;;;;;;5068834;28;20186;-84
2021/06/10 07:01:18;;;;;;;5.63;5.13;;;23.60;99.90;;;;;;5071775;28;20917;-85
2021/06/10 07:03:43;;;;;;;5.27;4.57;;;24.30;1.00;;;;;;5071417;28;20426;-86
2021/06/10 07:06:09;;;;;;;4.83;4.30;;;25.10;99.90;;;;;;5069171;28;20560;-85
2021/06/10 07:08:35;;;;;;;4.83;4.33;;;25.40;99.90;;;;;;5071773;28;20208;-86
2021/06/10 07:11:01;;;;;;;5.57;3.70;;;25.60;1.00;;;;;;5071566;28;20229;-85
2021/06/10 07:13:27;;;;;;;4.90;4.40;;;26.00;1.00;;;;;;5071788;28;20196;-84
2021/06/10 07:15:53;;;;;;;7.70;5.30;;;25.90;1.00;;;;;;5071216;28;20415;-84
2021/06/10 07:18:19;;;;;;;8.80;4.63;;;26.00;1.00;;;;;;5071577;28;20654;-84
2021/06/10 07:20:44;;;;;;;7.03;5.00;;;25.90;1.00;;;;;;5071753;28;20169;-85
2021/06/10 07:23:10;;;;;;;4.33;3.20;;;25.90;1.00;;;;;;5070647;28;20411;-85
2021/06/10 07:25:36;;;;;;;4.63;3.03;;;26.20;1.00;;;;;;5072154;28;20172;-84
2021/06/10 07:28:03;;;;;;;5.90;3.27;;;26.40;1.00;;;;;;5053414;28;20411;-85
2021/06/10 07:30:29;;;;;;;5.13;3.40;;;26.70;1.00;;;;;;5072361;28;20446;-85
2021/06/10 07:32:55;;;;;;;4.67;3.13;;;26.80;1.00;;;;;;5071984;28;20447;-84
2021/06/10 07:35:21;;;;;;;4.30;3.90;;;26.60;1.00;;;;;;5071946;28;20173;-85
2021/06/10 07:37:52;;;;;;;4.43;3.50;;;26.50;1.00;;;;;;5071986;28;20226;-83
2021/06/10 07:40:19;;;;;;;5.30;3.40;;;26.50;99.90;;;;;;5072206;28;20431;-84
2021/06/10 07:42:45;;;;;;;6.17;4.67;;;26.60;99.90;;;;;;5072316;28;20418;-84
2021/06/10 07:45:11;;;;;;;6.43;3.63;;;27.00;99.90;;;;;;5072198;28;20415;-84
2021/06/10 07:47:37;;;;;;;5.07;2.50;;;27.40;99.90;;;;;;5071835;28;20407;-84
2021/06/10 07:50:05;;;;;;;5.47;3.83;;;27.50;99.90;;;;;;5072139;28;20475;-85
2021/06/10 07:52:30;;;;;;;3.47;3.17;;;27.50;99.90;;;;;;5072127;28;20418;-85
2021/06/10 07:54:56;;;;;;;4.17;3.70;;;27.70;99.90;;;;;;5072067;28;20419;-84
2021/06/10 07:57:21;;;;;;;4.77;3.47;;;28.10;99.90;;;;;;5075207;28;20262;-85
2021/06/10 07:59:47;;;;;;;5.70;3.60;;;28.10;99.90;;;;;;5057103;28;20189;-85
2021/06/10 08:02:13;;;;;;;4.67;3.97;;;28.40;99.90;;;;;;5074597;28;20168;-84
2021/06/10 08:04:38;;;;;;;8.00;4.00;;;28.30;99.90;;;;;;5074946;28;20177;-84
2021/06/10 08:07:04;;;;;;;4.57;3.50;;;28.50;99.90;;;;;;5074849;28;20169;-85
2021/06/10 08:09:32;;;;;;;5.57;4.57;;;28.70;99.90;;;;;;5074800;28;20295;-84
2021/06/10 08:11:58;;;;;;;5.13;4.40;;;28.80;99.90;;;;;;5074624;28;20530;-85
2021/06/10 08:14:24;;;;;;;4.77;3.83;;;28.70;99.90;;;;;;5074781;28;20419;-87
2021/06/10 08:16:53;;;;;;;6.10;3.73;;;28.40;99.90;;;;;;5073859;28;20422;-84
2021/06/10 08:19:18;;;;;;;4.07;3.60;;;28.40;99.90;;;;;;5071946;28;20176;-83
2021/06/10 08:21:44;;;;;;;5.30;3.67;;;28.60;99.90;;;;;;5073226;28;20462;-84
2021/06/10 08:24:11;;;;;;;9.30;4.43;;;28.90;99.90;;;;;;5068904;28;20553;-86
2021/06/10 08:26:38;;;;;;;5.27;3.73;;;28.80;99.90;;;;;;5054742;28;20709;-83
2021/06/10 08:29:04;;;;;;;5.90;3.77;;;28.80;99.90;;;;;;5072713;28;20416;-84
2021/06/10 08:31:29;;;;;;;5.13;4.00;;;29.10;99.90;;;;;;5073394;28;20431;-86
2021/06/10 08:33:55;;;;;;;5.40;4.13;;;29.00;99.90;;;;;;5063274;28;20411;-84
2021/06/10 08:36:22;;;;;;;5.40;4.90;;;29.20;99.90;;;;;;5073772;28;20176;-84
2021/06/10 08:38:48;;;;;;;5.97;4.70;;;29.10;99.90;;;;;;5073578;28;20560;-85
2021/06/10 08:41:14;;;;;;;4.60;4.13;;;28.80;99.90;;;;;;5073467;28;20515;-88
2021/06/10 08:43:41;;;;;;;6.70;4.20;;;28.70;99.90;;;;;;5073106;28;20539;-85
2021/06/10 08:46:09;;;;;;;7.70;5.60;;;28.70;99.90;;;;;;5072508;28;20452;-86
2021/06/10 08:48:39;;;;;;;7.27;5.00;;;27.90;99.90;;;;;;5073002;28;20777;-87
2021/06/10 08:51:09;;;;;;;5.73;5.17;;;27.50;99.90;;;;;;5073296;28;20477;-88
2021/06/10 08:53:35;;;;;;;8.40;6.13;;;27.50;99.90;;;;;;5072413;28;20420;-88
2021/06/10 08:56:00;;;;;;;7.93;6.00;;;27.40;99.90;;;;;;5072407;28;20482;-87
2021/06/10 08:58:28;;;;;;;5.80;5.30;;;27.30;99.90;;;;;;5054831;28;20452;-86
2021/06/10 09:00:55;;;;;;;7.53;5.77;;;27.20;99.90;;;;;;5072892;28;20660;-86
2021/06/10 09:03:25;;;;;;;6.63;6.03;;;27.20;99.90;;;;;;5072334;28;20458;-88
2021/06/10 09:06:12;;;;;;;6.23;5.67;;;27.50;99.90;;;;;;5070482;28;20431;-87
2021/06/10 09:08:40;;;;;;;11.63;10.03;;;27.50;99.90;;;;;;5070949;28;20442;-86
2021/06/10 09:11:13;;;;;;;10.63;8.40;;;27.20;99.90;;;;;;5072326;28;20455;-86
2021/06/10 09:13:55;;;;;;;10.70;8.00;;;26.80;99.90;;;;;;5073019;28;20411;-89
2021/06/10 09:16:34;;;;;;;8.73;6.77;;;27.90;99.90;;;;;;5073238;28;20430;-87
2021/06/10 09:19:03;;;;;;;7.10;6.50;;;29.10;99.90;;;;;;5076321;28;20469;-87
2021/06/10 09:21:39;;;;;;;7.53;6.77;;;29.70;99.90;;;;;;5073668;28;20417;-88
2021/06/10 09:24:20;;;;;;;8.83;7.47;;;30.10;99.90;;;;;;5039739;28;20520;-86
2021/06/10 09:27:14;;;;;;;9.77;8.63;;;30.20;99.90;;;;;;5067489;28;20427;-84
2021/06/10 09:29:51;;;;;;;8.77;7.97;;;30.10;89.00;;;;;;5070797;28;20534;-86
2021/06/10 09:32:30;;;;;;;10.20;9.20;;;30.20;90.70;;;;;;5070549;28;20410;-86
2021/06/10 09:35:04;;;;;;;8.97;8.20;;;29.70;58.40;;;;;;5069891;28;20415;-85
2021/06/10 09:37:36;;;;;;;9.30;8.40;;;29.30;76.90;;;;;;5071996;28;20764;-86
2021/06/10 09:40:08;;;;;;;8.37;7.57;;;29.50;93.30;;;;;;5070527;28;20475;-85
2021/06/10 09:42:35;;;;;;;9.20;7.90;;;30.00;92.70;;;;;;5071254;28;20423;-87
2021/06/10 09:45:07;;;;;;;9.53;8.63;;;30.30;70.00;;;;;;5052801;28;20919;-85
2021/06/10 09:47:40;;;;;;;8.57;7.73;;;30.30;58.00;;;;;;5071262;28;20837;-85
2021/06/10 09:50:18;;;;;;;7.57;6.93;;;30.20;81.50;;;;;;5071901;28;20506;-85
2021/06/10 09:52:49;;;;;;;8.83;7.93;;;29.90;95.60;;;;;;5070511;28;20415;-86
2021/06/10 09:55:25;;;;;;;8.53;6.70;;;30.00;70.70;;;;;;5059546;28;20833;-85
2021/06/10 09:57:51;;;;;;;10.27;9.27;;;30.30;79.70;;;;;;5052566;28;20437;-85
2021/06/10 10:00:24;;;;;;;11.90;10.87;;;30.20;73.10;;;;;;5051435;28;20550;-85
2021/06/10 10:02:50;;;;;;;10.20;9.50;;;30.00;51.90;;;;;;5052342;28;20412;-86
2021/06/10 10:05:16;;;;;;;9.73;8.93;;;29.80;46.00;;;;;;5052694;28;20523;-86
2021/06/10 10:07:42;;;;;;;10.43;8.90;;;30.00;56.00;;;;;;5034875;28;20862;-85
2021/06/10 10:10:09;;;;;;;8.20;7.60;;;30.00;67.70;;;;;;5052535;28;20177;-86
2021/06/10 10:12:41;;;;;;;14.10;9.50;;;29.90;65.30;;;;;;5052593;28;20422;-85
2021/06/10 10:15:07;;;;;;;10.20;9.10;;;30.00;60.60;;;;;;5052497;28;20416;-85
2021/06/10 10:17:34;;;;;;;8.50;7.80;;;30.10;60.00;;;;;;5052086;28;20794;-85
2021/06/10 10:20:00;;;;;;;9.03;8.23;;;30.20;83.70;;;;;;5052029;28;20551;-85
2021/06/10 10:22:27;;;;;;;8.30;7.60;;;30.20;75.20;;;;;;5052983;28;20499;-85
2021/06/10 10:24:53;;;;;;;8.00;7.27;;;30.20;83.20;;;;;;5035170;28;20174;-85
2021/06/10 10:27:21;;;;;;;8.37;7.60;;;30.10;93.20;;;;;;5052953;28;20442;-85
2021/06/10 10:29:48;;;;;;;10.27;9.40;;;30.40;96.30;;;;;;5052991;28;20485;-85
2021/06/10 10:32:20;;;;;;;11.23;10.27;;;30.20;64.60;;;;;;5034786;28;20519;-85
2021/06/10 10:34:46;;;;;;;9.00;8.10;;;29.70;56.50;;;;;;5053029;28;20443;-85
2021/06/10 10:37:16;;;;;;;12.70;9.40;;;30.20;99.90;;;;;;5052820;28;20431;-85
2021/06/10 10:39:42;;;;;;;11.77;10.80;;;30.10;87.60;;;;;;5052889;28;20573;-84
2021/06/10 10:42:07;;;;;;;9.07;8.23;;;29.70;70.00;;;;;;5018615;28;20432;-84
2021/06/10 10:44:34;;;;;;;11.10;10.20;;;29.90;96.10;;;;;;5035049;28;20177;-83
2021/06/10 10:47:03;;;;;;;9.67;8.57;;;29.60;64.30;;;;;;5052354;28;20174;-84
2021/06/10 10:49:37;;;;;;;10.87;9.77;;;29.60;99.90;;;;;;5052771;28;20420;-84
2021/06/10 10:52:27;;;;;;;9.60;8.80;;;29.70;77.60;;;;;;5052676;28;20757;-84
2021/06/10 10:54:53;;;;;;;12.33;9.37;;;30.00;99.90;;;;;;5052693;28;20423;-84
2021/06/10 10:57:41;;;;;;;9.60;8.80;;;29.70;99.90;;;;;;5052707;28;20400;-84
2021/06/10 11:00:09;;;;;;;10.23;9.33;;;29.80;95.00;;;;;;5034707;28;20209;-84
2021/06/10 11:02:41;;;;;;;10.93;9.93;;;29.70;99.50;;;;;;5034308;28;20416;-84
2021/06/10 11:05:09;;;;;;;10.57;9.77;;;29.30;99.90;;;;;;5052546;28;20416;-84
2021/06/10 11:07:40;;;;;;;9.30;8.53;;;29.80;99.90;;;;;;5052554;28;20769;-84
2021/06/10 11:10:10;;;;;;;10.60;9.70;;;30.30;99.90;;;;;;5052475;28;20416;-84
2021/06/10 11:12:42;;;;;;;9.77;8.87;;;30.20;95.70;;;;;;5034691;28;20412;-83
2021/06/10 11:15:23;;;;;;;8.20;7.60;;;30.30;99.90;;;;;;5052451;28;20425;-84
2021/06/10 11:17:58;;;;;;;10.80;7.70;;;30.70;99.90;;;;;;5052200;28;20488;-84
2021/06/10 11:20:44;;;;;;;10.97;10.10;;;31.40;99.90;;;;;;5052399;28;20430;-84
2021/06/10 11:23:17;;;;;;;9.83;9.10;;;31.20;65.80;;;;;;5052108;28;20412;-85
2021/06/10 11:25:50;;;;;;;7.17;6.53;;;31.60;43.60;;;;;;5052406;28;20868;-84
2021/06/10 11:28:18;;;;;;;9.97;7.50;;;32.00;62.00;;;;;;5052444;28;20893;-84
2021/06/10 11:30:48;;;;;;;7.50;6.80;;;32.10;43.60;;;;;;5054030;28;20931;-84
2021/06/10 11:33:17;;;;;;;10.53;9.50;;;31.60;53.70;;;;;;5056185;28;20503;-83
2021/06/10 11:35:53;;;;;;;9.30;8.60;;;30.50;46.40;;;;;;5038250;28;20992;-85
2021/06/10 11:38:28;;;;;;;9.70;9.00;;;30.70;51.90;;;;;;5056074;28;20495;-85
2021/06/10 11:40:53;;;;;;;8.53;7.23;;;30.80;59.20;;;;;;5056013;28;20478;-83
2021/06/10 11:43:20;;;;;;;9.10;8.40;;;31.00;96.20;;;;;;5056050;28;20395;-84
2021/06/10 11:45:47;;;;;;;9.20;8.43;;;31.10;53.60;;;;;;5055642;28;20166;-84
2021/06/10 11:48:14;;;;;;;7.93;7.17;;;31.30;44.50;;;;;;5056012;28;20810;-84
2021/06/10 11:50:42;;;;;;;7.33;6.73;;;31.20;34.80;;;;;;5055830;28;20822;-83
2021/06/10 11:53:17;;;;;;;9.27;8.47;;;31.00;53.90;;;;;;5055634;28;20506;-84
2021/06/10 11:55:43;;;;;;;10.03;6.77;;;31.40;35.30;;;;;;5055185;28;20415;-82
2021/06/10 11:58:11;;;;;;;8.50;7.77;;;31.50;49.60;;;;;;5055246;28;20431;-84
2021/06/10 12:00:42;;;;;;;7.20;6.60;;;31.40;34.30;;;;;;5054705;28;20478;-85
2021/06/10 12:03:10;;;;;;;8.93;8.20;;;31.50;55.20;;;;;;5055016;28;20495;-84
2021/06/10 12:05:50;;;;;;;7.83;7.03;;;31.90;34.80;;;;;;5054944;28;20462;-83
2021/06/10 12:08:27;;;;;;;8.07;7.47;;;31.30;40.00;;;;;;5054921;28;20794;-83
2021/06/10 12:10:56;;;;;;;8.23;7.63;;;31.20;31.30;;;;;;5047123;28;20473;-83
2021/06/10 12:13:42;;;;;;;7.80;7.07;;;30.60;27.60;;;;;;5074834;28;20407;-83
2021/06/10 12:16:10;;;;;;;9.27;6.83;;;30.70;35.80;;;;;;5074392;28;20403;-84
2021/06/10 12:18:37;;;;;;;9.40;8.60;;;30.80;30.90;;;;;;5074659;28;20463;-84
2021/06/10 12:21:08;;;;;;;8.07;7.37;;;30.80;22.00;;;;;;5074486;28;20469;-83
2021/06/10 12:23:38;;;;;;;9.27;8.00;;;30.70;28.30;;;;;;5074455;28;20408;-83
2021/06/10 12:26:15;;;;;;;9.03;8.33;;;31.20;17.00;;;;;;5074564;28;20419;-83
2021/06/10 12:28:59;;;;;;;6.47;5.97;;;31.30;16.00;;;;;;5074398;28;20422;-83
2021/06/10 12:31:26;;;;;;;6.53;5.40;;;31.60;19.70;;;;;;5073970;28;20461;-83
2021/06/10 12:33:57;;;;;;;8.10;7.40;;;31.60;44.30;;;;;;5073045;28;20777;-84
2021/06/10 12:36:42;;;;;;;6.53;5.93;;;32.00;29.00;;;;;;5074487;28;20403;-83
2021/06/10 12:39:14;;;;;;;5.40;5.00;;;31.90;21.20;;;;;;5074308;28;20474;-83
2021/06/10 12:41:42;;;;;;;7.50;6.90;;;32.00;22.50;;;;;;5073296;28;20439;-84
2021/06/10 12:44:09;;;;;;;6.97;6.57;;;31.60;11.30;;;;;;5074255;28;20473;-84
2021/06/10 12:46:49;;;;;;;5.87;5.37;;;31.80;5.40;;;;;;5073918;28;20415;-83